createdAt,value
2019-02-05T00:01:25.330Z,11.40
2019-02-05T00:03:55.046Z,10.07
2019-02-05T00:06:24.853Z,11.10
2019-02-05T00:08:55.163Z,10.80
2019-02-05T00:11:24.731Z,10.23
2019-02-05T00:13:54.310Z,9.60
2019-02-05T00:16:24.043Z,9.37
2019-02-05T00:18:53.626Z,9.60
2019-02-05T00:21:23.259Z,9.30
2019-02-05T00:23:52.965Z,10.70
2019-02-05T00:26:22.530Z,10.77
2019-02-05T00:28:52.267Z,11.07
2019-02-05T00:31:21.800Z,10.77
2019-02-05T00:33:51.571Z,11.23
2019-02-05T00:36:21.074Z,11.33
2019-02-05T00:38:52.798Z,11.00
2019-02-05T00:41:24.038Z,11.73
2019-02-05T00:43:53.683Z,10.77
2019-02-05T00:46:23.366Z,10.63
2019-02-05T00:48:53.109Z,10.97
2019-02-05T00:51:22.762Z,10.70
2019-02-05T00:53:52.442Z,10.37
2019-02-05T00:56:22.010Z,10.33
2019-02-05T00:58:51.579Z,10.07
2019-02-05T01:01:21.115Z,11.30
2019-02-05T01:03:50.607Z,10.03
2019-02-05T01:06:20.242Z,10.63
2019-02-05T01:08:49.923Z,10.87
2019-02-05T01:11:19.559Z,9.97
2019-02-05T01:13:49.130Z,11.47
2019-02-05T01:16:19.080Z,10.67
2019-02-05T01:18:48.582Z,11.20
2019-02-05T01:21:18.352Z,10.97
2019-02-05T01:23:47.968Z,12.17
2019-02-05T01:26:28.713Z,13.37
2019-02-05T01:28:48.815Z,13.03
2019-02-05T01:31:18.615Z,13.57
2019-02-05T01:33:48.223Z,12.83
2019-02-05T01:36:17.826Z,13.57
2019-02-05T01:38:47.495Z,14.10
2019-02-05T01:41:17.058Z,15.27
2019-02-05T01:43:46.775Z,14.83
2019-02-05T01:46:16.383Z,16.40
2019-02-05T01:48:46.541Z,15.40
2019-02-05T01:51:16.175Z,13.87
2019-02-05T01:53:45.794Z,15.20
2019-02-05T01:56:15.426Z,13.93
2019-02-05T01:58:44.998Z,13.07
2019-02-05T02:01:14.705Z,13.50
2019-02-05T02:03:44.867Z,12.40
2019-02-05T02:06:14.512Z,13.53
2019-02-05T02:08:44.113Z,14.17
2019-02-05T02:11:13.759Z,13.47
2019-02-05T02:13:43.903Z,12.70
2019-02-05T02:16:13.562Z,13.27
2019-02-05T02:18:43.086Z,13.57
2019-02-05T02:21:12.723Z,13.47
2019-02-05T02:23:42.399Z,13.40
2019-02-05T02:26:12.085Z,13.73
2019-02-05T02:28:41.952Z,13.57
2019-02-05T02:31:11.618Z,14.47
2019-02-05T02:33:41.359Z,13.50
2019-02-05T02:36:11.079Z,14.17
2019-02-05T02:38:40.714Z,13.50
2019-02-05T02:41:10.695Z,16.00
2019-02-05T02:43:40.368Z,14.97
2019-02-05T02:46:10.203Z,14.07
2019-02-05T02:48:39.876Z,14.70
2019-02-05T02:51:09.548Z,14.43
2019-02-05T02:53:39.186Z,15.20
2019-02-05T02:56:08.804Z,14.37
2019-02-05T02:58:38.376Z,14.87
2019-02-05T03:01:08.142Z,15.27
2019-02-05T03:03:37.707Z,14.77
2019-02-05T03:06:07.344Z,16.23
2019-02-05T03:08:37.918Z,16.43
2019-02-05T03:11:07.703Z,17.83
2019-02-05T03:13:37.571Z,17.10
2019-02-05T03:16:07.665Z,17.13
2019-02-05T03:18:37.428Z,17.20
2019-02-05T03:21:07.136Z,18.37
2019-02-05T03:23:37.413Z,16.07
2019-02-05T03:26:07.056Z,16.63
2019-02-05T03:28:36.629Z,16.47
2019-02-05T03:31:06.416Z,16.40
2019-02-05T03:33:35.977Z,17.50
2019-02-05T03:36:05.814Z,16.60
2019-02-05T03:38:35.557Z,17.30
2019-02-05T03:41:05.370Z,17.77
2019-02-05T03:43:35.470Z,16.27
2019-02-05T03:46:06.320Z,16.13
2019-02-05T03:48:36.674Z,17.37
2019-02-05T03:51:18.362Z,17.53
2019-02-05T03:53:59.750Z,16.57
2019-02-05T03:56:39.100Z,15.60
2019-02-05T03:59:17.656Z,15.67
2019-02-05T04:01:53.023Z,15.43
2019-02-05T04:04:40.571Z,15.30
2019-02-05T04:07:25.553Z,15.50
2019-02-05T04:10:10.083Z,15.27
2019-02-05T04:12:52.183Z,15.73
2019-02-05T04:15:36.862Z,16.00
2019-02-05T04:18:09.576Z,16.17
2019-02-05T04:20:51.601Z,16.90
2019-02-05T04:23:53.099Z,16.27
2019-02-05T04:26:50.142Z,15.17
2019-02-05T04:29:39.579Z,15.80
2019-02-05T04:32:18.643Z,16.17
2019-02-05T04:35:07.792Z,16.40
2019-02-05T04:38:00.230Z,15.60
2019-02-05T04:40:32.886Z,15.10
2019-02-05T04:43:17.312Z,14.83
2019-02-05T04:46:08.527Z,16.00
2019-02-05T04:48:43.549Z,15.20
2019-02-05T04:51:48.370Z,15.87
2019-02-05T04:54:26.983Z,14.53
2019-02-05T04:56:59.680Z,14.30
2019-02-05T04:59:47.312Z,15.03
2019-02-05T05:02:38.109Z,14.30
2019-02-05T05:05:35.551Z,15.07
2019-02-05T05:08:17.189Z,15.30
2019-02-05T05:10:46.762Z,13.70
2019-02-05T05:13:16.622Z,14.33
2019-02-05T05:15:46.306Z,14.07
2019-02-05T05:18:15.883Z,15.17
2019-02-05T05:20:45.894Z,15.27
2019-02-05T05:23:15.563Z,14.93
2019-02-05T05:25:45.134Z,15.93
2019-02-05T05:28:14.943Z,15.40
2019-02-05T05:30:44.683Z,15.30
2019-02-05T05:33:14.827Z,16.40
2019-02-05T05:35:44.697Z,15.00
2019-02-05T05:38:14.358Z,16.73
2019-02-05T05:40:44.013Z,18.13
2019-02-05T05:43:13.592Z,16.93
2019-02-05T05:45:43.650Z,16.43
2019-02-05T05:48:13.782Z,16.00
2019-02-05T05:50:43.411Z,16.70
2019-02-05T05:53:13.399Z,14.67
2019-02-05T05:55:42.981Z,15.90
2019-02-05T05:58:22.290Z,15.77
2019-02-05T06:00:44.929Z,14.83
2019-02-05T06:03:14.807Z,15.87
2019-02-05T06:05:44.447Z,15.30
2019-02-05T06:08:14.119Z,16.10
2019-02-05T06:10:43.756Z,16.57
2019-02-05T06:13:13.399Z,16.93
2019-02-05T06:15:43.319Z,18.13
2019-02-05T06:18:13.295Z,17.67
2019-02-05T06:21:02.252Z,18.20
2019-02-05T06:23:31.962Z,17.80
2019-02-05T06:26:01.675Z,18.53
2019-02-05T06:28:34.805Z,18.10
2019-02-05T06:31:02.682Z,20.10
2019-02-05T06:33:32.327Z,19.40
2019-02-05T06:36:01.935Z,18.57
2019-02-05T06:38:31.587Z,21.13
2019-02-05T06:41:02.949Z,21.07
2019-02-05T06:43:32.590Z,21.00
2019-02-05T06:46:02.225Z,23.33
2019-02-05T06:48:31.787Z,20.63
2019-02-05T06:51:04.254Z,21.57
2019-02-05T06:53:33.895Z,20.97
2019-02-05T06:56:03.609Z,21.43
2019-02-05T06:58:33.290Z,20.83
2019-02-05T07:01:02.861Z,20.70
2019-02-05T07:03:32.565Z,21.77
2019-02-05T07:06:03.110Z,21.50
2019-02-05T07:08:32.754Z,22.20
2019-02-05T07:11:02.557Z,22.53
2019-02-05T07:13:32.417Z,21.70
2019-02-05T07:16:02.455Z,22.47
2019-02-05T07:18:32.023Z,23.17
2019-02-05T07:21:02.552Z,22.60
2019-02-05T07:23:32.132Z,22.93
2019-02-05T07:26:01.698Z,22.43
2019-02-05T07:28:32.199Z,21.63
2019-02-05T07:31:02.337Z,22.43
2019-02-05T07:33:31.970Z,23.47
2019-02-05T07:36:01.738Z,22.33
2019-02-05T07:38:31.382Z,23.07
2019-02-05T07:41:01.051Z,21.20
2019-02-05T07:43:30.654Z,21.47
2019-02-05T07:46:00.317Z,21.17
2019-02-05T07:48:30.650Z,22.57
2019-02-05T07:51:00.292Z,21.73
2019-02-05T07:53:33.058Z,23.17
2019-02-05T07:56:02.947Z,23.10
2019-02-05T07:58:32.587Z,22.60
2019-02-05T08:01:02.367Z,24.30
2019-02-05T08:03:32.336Z,22.83
2019-02-05T08:06:02.587Z,23.60
2019-02-05T08:08:32.155Z,22.77
2019-02-05T08:11:02.267Z,26.33
2019-02-05T08:13:32.311Z,22.97
2019-02-05T08:16:02.034Z,23.87
2019-02-05T08:18:31.599Z,24.17
2019-02-05T08:21:02.834Z,27.20
2019-02-05T08:23:32.555Z,26.83
2019-02-05T08:26:02.149Z,28.20
2019-02-05T08:28:40.585Z,30.03
2019-02-05T08:31:03.186Z,29.97
2019-02-05T08:33:32.759Z,30.97
2019-02-05T08:36:02.523Z,29.87
2019-02-05T08:38:32.101Z,29.37
2019-02-05T08:41:01.677Z,29.47
2019-02-05T08:43:32.247Z,30.33
2019-02-05T08:46:01.953Z,29.50
2019-02-05T08:48:31.541Z,33.53
2019-02-05T08:51:01.270Z,35.63
2019-02-05T08:53:31.247Z,32.77
2019-02-05T08:56:00.892Z,30.33
2019-02-05T08:58:33.411Z,30.03
2019-02-05T09:01:03.224Z,28.47
2019-02-05T09:03:32.867Z,28.10
2019-02-05T09:06:02.582Z,27.90
2019-02-05T09:08:32.607Z,29.40
2019-02-05T09:11:02.301Z,26.93
2019-02-05T09:13:32.462Z,30.00
2019-02-05T09:16:02.107Z,27.65
2019-02-05T09:18:31.680Z,28.40
2019-02-05T09:21:02.936Z,26.80
2019-02-05T09:23:32.506Z,28.38
2019-02-05T09:26:02.151Z,28.17
2019-02-05T09:28:32.294Z,27.02
2019-02-05T09:31:02.015Z,23.00
2019-02-05T09:33:31.727Z,24.52
2019-02-05T09:36:02.977Z,25.85
2019-02-05T09:38:32.689Z,25.85
2019-02-05T09:41:02.679Z,26.15
2019-02-05T09:43:32.363Z,30.60
2019-02-05T09:46:02.071Z,28.62
2019-02-05T09:48:31.649Z,30.00
2019-02-05T09:51:02.947Z,30.37
2019-02-05T09:53:32.610Z,32.23
2019-02-05T09:56:02.472Z,33.60
2019-02-05T09:58:33.136Z,34.18
2019-02-05T10:01:02.839Z,33.78
2019-02-05T10:03:32.485Z,32.65
2019-02-05T10:06:02.167Z,32.85
2019-02-05T10:08:31.915Z,31.15
2019-02-05T10:11:02.126Z,31.02
2019-02-05T10:13:31.838Z,29.95
2019-02-05T10:16:01.415Z,28.12
2019-02-05T10:18:30.988Z,29.37
2019-02-05T10:21:00.936Z,28.17
2019-02-05T10:23:30.763Z,28.10
2019-02-05T10:26:00.399Z,28.55
2019-02-05T10:28:30.154Z,29.80
2019-02-05T10:30:59.727Z,30.32
2019-02-05T10:33:29.392Z,30.23
2019-02-05T10:36:01.250Z,30.23
2019-02-05T10:38:30.480Z,30.50
2019-02-05T10:41:00.122Z,29.72
2019-02-05T10:43:30.027Z,30.17
2019-02-05T10:45:59.667Z,30.15
2019-02-05T10:48:29.315Z,25.20
2019-02-05T10:50:58.995Z,23.05
2019-02-05T10:53:28.646Z,21.75
2019-02-05T10:55:58.234Z,22.37
2019-02-05T10:58:28.224Z,24.85
2019-02-05T11:00:58.112Z,26.70
2019-02-05T11:03:27.755Z,28.15
2019-02-05T11:06:15.798Z,27.07
2019-02-05T11:08:39.958Z,28.15
2019-02-05T11:11:09.529Z,27.07
2019-02-05T11:13:39.283Z,26.75
2019-02-05T11:16:08.950Z,27.22
2019-02-05T11:18:38.569Z,26.45
2019-02-05T11:21:08.771Z,26.95
2019-02-05T11:23:38.408Z,26.77
2019-02-05T11:26:08.164Z,24.23
2019-02-05T11:28:38.118Z,23.27
2019-02-05T11:31:07.829Z,22.05
2019-02-05T11:33:37.542Z,21.48
2019-02-05T11:36:07.444Z,20.48
2019-02-05T11:38:37.260Z,20.40
2019-02-05T11:41:06.832Z,21.02
2019-02-05T11:43:36.630Z,22.22
2019-02-05T11:46:06.275Z,21.87
2019-02-05T11:48:35.994Z,22.05
2019-02-05T11:51:06.245Z,20.88
2019-02-05T11:53:36.152Z,20.80
2019-02-05T11:56:05.890Z,20.05
2019-02-05T11:58:36.135Z,20.02
2019-02-05T12:01:07.429Z,18.82
2019-02-05T12:03:40.302Z,18.95
2019-02-05T12:06:10.055Z,19.17
2019-02-05T12:08:39.729Z,19.95
2019-02-05T12:11:09.266Z,18.35
2019-02-05T12:13:39.066Z,19.25
2019-02-05T12:16:08.770Z,19.77
2019-02-05T12:18:38.519Z,18.70
2019-02-05T12:21:08.131Z,19.55
2019-02-05T12:23:37.870Z,19.60
2019-02-05T12:26:07.555Z,19.17
2019-02-05T12:28:37.619Z,21.17
2019-02-05T12:31:07.465Z,20.55
2019-02-05T12:33:37.035Z,20.95
2019-02-05T12:36:07.671Z,20.70
2019-02-05T12:38:37.244Z,22.37
2019-02-05T12:41:06.955Z,23.90
2019-02-05T12:43:37.461Z,26.27
2019-02-05T12:46:07.540Z,23.05
2019-02-05T12:48:37.183Z,26.62
2019-02-05T12:51:06.999Z,27.67
2019-02-05T12:53:36.571Z,26.70
2019-02-05T12:56:06.470Z,24.37
2019-02-05T12:58:36.191Z,24.87
2019-02-05T13:01:05.899Z,26.52
2019-02-05T13:03:35.618Z,27.60
2019-02-05T13:06:05.777Z,28.60
2019-02-05T13:08:35.405Z,25.82
2019-02-05T13:11:05.420Z,26.80
2019-02-05T13:13:35.157Z,27.20
2019-02-05T13:16:05.171Z,27.25
2019-02-05T13:18:34.734Z,28.83
2019-02-05T13:21:05.126Z,26.90
2019-02-05T13:23:34.935Z,27.48
2019-02-05T13:26:05.471Z,26.75
2019-02-05T13:28:35.226Z,23.00
2019-02-05T13:31:08.055Z,23.02
2019-02-05T13:33:36.567Z,24.27
2019-02-05T13:36:09.782Z,23.22
2019-02-05T13:38:39.367Z,22.75
2019-02-05T13:41:09.067Z,22.42
2019-02-05T13:43:39.044Z,23.30
2019-02-05T13:46:08.826Z,22.37
2019-02-05T13:48:38.398Z,22.80
2019-02-05T13:51:08.150Z,23.60
2019-02-05T13:53:37.725Z,22.80
2019-02-05T13:56:07.937Z,23.85
2019-02-05T13:58:37.540Z,23.52
2019-02-05T14:01:07.183Z,25.50
2019-02-05T14:03:36.824Z,26.95
2019-02-05T14:06:06.600Z,26.37
2019-02-05T14:08:38.149Z,27.58
2019-02-05T14:11:07.707Z,24.90
2019-02-05T14:13:37.310Z,26.05
2019-02-05T14:16:07.155Z,27.37
2019-02-05T14:18:36.793Z,25.82
2019-02-05T14:21:06.393Z,27.10
2019-02-05T14:23:35.957Z,27.10
2019-02-05T14:26:05.672Z,28.52
2019-02-05T14:28:35.447Z,27.90
2019-02-05T14:31:05.147Z,30.75
2019-02-05T14:33:34.642Z,29.92
2019-02-05T14:36:04.436Z,29.40
2019-02-05T14:38:34.115Z,27.85
2019-02-05T14:41:04.158Z,26.95
2019-02-05T14:43:33.767Z,30.32
2019-02-05T14:46:03.414Z,27.82
2019-02-05T14:48:33.126Z,24.30
2019-02-05T14:51:02.730Z,25.55
2019-02-05T14:53:32.230Z,24.12
2019-02-05T14:56:02.167Z,25.37
2019-02-05T14:58:31.842Z,26.60
2019-02-05T15:01:01.383Z,25.88
2019-02-05T15:03:31.049Z,25.30
2019-02-05T15:06:01.339Z,25.75
2019-02-05T15:08:30.913Z,23.87
2019-02-05T15:11:01.916Z,24.20
2019-02-05T15:13:32.222Z,24.18
2019-02-05T15:16:05.336Z,23.42
2019-02-05T15:18:41.206Z,24.02
2019-02-05T15:21:11.913Z,24.25
2019-02-05T15:23:41.491Z,23.52
2019-02-05T15:26:11.186Z,23.87
2019-02-05T15:28:42.901Z,23.85
2019-02-05T15:31:12.474Z,23.67
2019-02-05T15:33:43.755Z,23.07
2019-02-05T15:36:18.362Z,23.42
2019-02-05T15:38:47.995Z,22.20
2019-02-05T15:41:17.610Z,22.52
2019-02-05T15:43:47.413Z,21.93
2019-02-05T15:46:16.970Z,22.45
2019-02-05T15:48:47.122Z,22.90
2019-02-05T15:51:16.691Z,22.98
2019-02-05T15:53:46.325Z,22.65
2019-02-05T15:56:16.030Z,22.13
2019-02-05T15:58:45.673Z,22.25
2019-02-05T16:01:15.234Z,22.82
2019-02-05T16:03:45.454Z,21.82
2019-02-05T16:06:15.083Z,22.05
2019-02-05T16:08:44.752Z,21.50
2019-02-05T16:11:14.368Z,21.27
2019-02-05T16:13:43.995Z,21.48
2019-02-05T16:16:13.707Z,20.80
2019-02-05T16:18:44.074Z,20.60
2019-02-05T16:21:13.655Z,19.95
2019-02-05T16:23:43.287Z,22.85
2019-02-05T16:26:12.916Z,21.42
2019-02-05T16:28:42.618Z,19.92
2019-02-05T16:31:12.197Z,19.80
2019-02-05T16:33:42.381Z,19.62
2019-02-05T16:36:12.375Z,19.20
2019-02-05T16:38:42.020Z,19.60
2019-02-05T16:41:11.801Z,18.27
2019-02-05T16:43:41.376Z,19.80
2019-02-05T16:46:10.956Z,18.82
2019-02-05T16:48:41.010Z,20.12
2019-02-05T16:51:10.661Z,20.00
2019-02-05T16:53:40.235Z,20.00
2019-02-05T16:56:10.009Z,20.02
2019-02-05T16:58:39.725Z,19.90
2019-02-05T17:01:09.295Z,19.37
2019-02-05T17:03:38.992Z,20.08
2019-02-05T17:06:08.641Z,19.35
2019-02-05T17:08:38.309Z,18.65
2019-02-05T17:11:08.031Z,18.50
2019-02-05T17:13:37.671Z,19.65
2019-02-05T17:16:07.247Z,18.75
2019-02-05T17:18:36.862Z,19.35
2019-02-05T17:21:06.618Z,18.87
2019-02-05T17:23:36.110Z,18.40
2019-02-05T17:26:05.720Z,20.20
2019-02-05T17:28:35.302Z,19.60
2019-02-05T17:31:05.080Z,19.70
2019-02-05T17:33:34.765Z,19.75
2019-02-05T17:36:04.703Z,19.73
2019-02-05T17:38:34.269Z,21.27
2019-02-05T17:41:05.837Z,22.62
2019-02-05T17:43:35.418Z,20.35
2019-02-05T17:46:06.015Z,21.15
2019-02-05T17:48:35.818Z,21.60
2019-02-05T17:51:05.487Z,21.90
2019-02-05T17:53:35.131Z,23.35
2019-02-05T17:56:05.598Z,23.02
2019-02-05T17:58:35.162Z,23.42
2019-02-05T18:01:07.118Z,23.70
2019-02-05T18:03:36.912Z,25.23
2019-02-05T18:06:06.577Z,24.30
2019-02-05T18:08:36.287Z,23.90
2019-02-05T18:11:06.736Z,23.15
2019-02-05T18:13:36.578Z,25.05
2019-02-05T18:16:08.398Z,24.57
2019-02-05T18:18:38.023Z,26.55
2019-02-05T18:21:07.695Z,26.70
2019-02-05T18:23:37.549Z,27.00
2019-02-05T18:26:07.271Z,25.62
2019-02-05T18:28:37.325Z,26.07
2019-02-05T18:31:07.038Z,26.00
2019-02-05T18:33:36.737Z,25.10
2019-02-05T18:36:06.460Z,25.00
2019-02-05T18:38:36.108Z,25.05
2019-02-05T18:41:06.308Z,26.82
2019-02-05T18:43:36.223Z,27.00
2019-02-05T18:46:05.929Z,26.35
2019-02-05T18:48:35.542Z,26.70
2019-02-05T18:51:05.248Z,27.90
2019-02-05T18:53:34.841Z,26.70
2019-02-05T18:56:05.199Z,27.22
2019-02-05T18:58:34.741Z,28.05
2019-02-05T19:01:06.249Z,27.10
2019-02-05T19:03:35.991Z,27.82
2019-02-05T19:06:05.643Z,27.20
2019-02-05T19:08:35.278Z,28.38
2019-02-05T19:11:05.002Z,27.95
2019-02-05T19:13:34.512Z,27.22
2019-02-05T19:16:04.219Z,28.95
2019-02-05T19:18:34.814Z,25.97
2019-02-05T19:21:04.522Z,28.85
2019-02-05T19:23:34.214Z,25.90
2019-02-05T19:26:08.919Z,27.40
2019-02-05T19:28:38.674Z,25.55
2019-02-05T19:31:12.614Z,25.77
2019-02-05T19:33:42.159Z,25.82
2019-02-05T19:36:11.707Z,25.08
2019-02-05T19:38:41.209Z,23.98
2019-02-05T19:41:11.024Z,25.23
2019-02-05T19:43:40.975Z,24.45
2019-02-05T19:46:21.463Z,23.75
2019-02-05T19:48:52.986Z,23.98
2019-02-05T19:51:22.762Z,21.20
2019-02-05T19:53:53.916Z,22.07
2019-02-05T19:56:23.600Z,20.85
2019-02-05T19:58:53.253Z,22.00
2019-02-05T20:01:22.899Z,21.48
2019-02-05T20:03:52.570Z,21.42
2019-02-05T20:06:22.220Z,22.77
2019-02-05T20:08:51.859Z,22.77
2019-02-05T20:11:21.647Z,23.22
2019-02-05T20:13:51.295Z,21.97
2019-02-05T20:16:20.908Z,21.93
2019-02-05T20:18:50.496Z,22.35
2019-02-05T20:21:20.003Z,19.42
2019-02-05T20:23:49.730Z,20.32
2019-02-05T20:26:19.585Z,19.82
2019-02-05T20:28:49.168Z,20.27
2019-02-05T20:31:18.863Z,18.80
2019-02-05T20:33:49.827Z,19.75
2019-02-05T20:36:19.823Z,19.85
2019-02-05T20:38:49.424Z,20.30
2019-02-05T20:41:19.289Z,20.48
2019-02-05T20:43:48.981Z,19.80
2019-02-05T20:46:19.085Z,21.05
2019-02-05T20:48:48.775Z,21.12
2019-02-05T20:51:18.484Z,22.40
2019-02-05T20:53:48.760Z,20.75
2019-02-05T20:56:18.413Z,20.57
2019-02-05T20:58:47.986Z,19.23
2019-02-05T21:01:17.620Z,19.23
2019-02-05T21:03:47.340Z,19.42
2019-02-05T21:06:16.920Z,18.82
2019-02-05T21:08:46.605Z,18.92
2019-02-05T21:11:16.171Z,16.50
2019-02-05T21:13:46.114Z,15.60
2019-02-05T21:16:15.967Z,16.10
2019-02-05T21:18:45.612Z,14.60
2019-02-05T21:21:15.178Z,14.85
2019-02-05T21:23:45.222Z,14.98
2019-02-05T21:26:14.930Z,15.75
2019-02-05T21:28:45.072Z,13.60
2019-02-05T21:31:14.697Z,13.78
2019-02-05T21:33:44.263Z,14.03
2019-02-05T21:36:13.763Z,12.65
2019-02-05T21:38:45.409Z,12.73
2019-02-05T21:41:14.570Z,13.90
2019-02-05T21:43:44.484Z,13.50
2019-02-05T21:46:14.112Z,13.03
2019-02-05T21:48:43.675Z,12.15
2019-02-05T21:51:13.246Z,11.20
2019-02-05T21:53:43.082Z,10.75
2019-02-05T21:56:12.588Z,11.20
2019-02-05T21:58:42.222Z,9.88
2019-02-05T22:01:14.365Z,8.88
2019-02-05T22:03:43.148Z,8.65
2019-02-05T22:06:12.871Z,8.98
2019-02-05T22:08:42.935Z,8.50
2019-02-05T22:11:12.616Z,8.55
2019-02-05T22:13:42.257Z,10.55
2019-02-05T22:16:12.007Z,11.10
2019-02-05T22:18:41.588Z,12.25
2019-02-05T22:21:11.800Z,13.00
2019-02-05T22:23:41.488Z,13.62
2019-02-05T22:26:11.214Z,14.93
2019-02-05T22:28:40.903Z,16.17
2019-02-05T22:31:10.572Z,17.70
2019-02-05T22:33:40.285Z,15.75
2019-02-05T22:36:10.326Z,15.18
2019-02-05T22:38:40.281Z,16.10
2019-02-05T22:41:09.850Z,17.40
2019-02-05T22:43:39.422Z,16.32
2019-02-05T22:46:09.483Z,15.98
2019-02-05T22:48:39.458Z,16.30
2019-02-05T22:51:09.211Z,16.35
2019-02-05T22:53:38.868Z,16.75
2019-02-05T22:56:08.502Z,18.25
2019-02-05T22:58:38.120Z,18.52
2019-02-05T23:01:13.734Z,19.32
2019-02-05T23:03:49.112Z,18.50
2019-02-05T23:06:31.039Z,19.82
2019-02-05T23:09:16.383Z,20.20
2019-02-05T23:11:53.170Z,19.73
2019-02-05T23:14:22.831Z,22.05
2019-02-05T23:16:52.475Z,21.75
2019-02-05T23:19:22.620Z,20.95
2019-02-05T23:21:52.530Z,21.40
2019-02-05T23:24:22.103Z,20.95
2019-02-05T23:26:52.079Z,20.62
2019-02-05T23:29:21.803Z,19.80
2019-02-05T23:31:51.387Z,17.67
2019-02-05T23:34:21.919Z,18.07
2019-02-05T23:36:51.494Z,16.07
2019-02-05T23:39:21.153Z,15.32
2019-02-05T23:41:50.943Z,14.50
2019-02-05T23:44:20.650Z,13.62
2019-02-05T23:46:50.220Z,13.43
2019-02-05T23:49:19.900Z,13.18
2019-02-05T23:51:49.547Z,12.75
2019-02-05T23:54:19.259Z,14.10
2019-02-05T23:56:48.875Z,13.70
2019-02-05T23:59:18.518Z,14.33
